createdAt,value
2023-01-20T00:01:43.145Z,31.07
2023-01-20T00:04:10.178Z,26.83
2023-01-20T00:06:51.996Z,30.07
2023-01-20T00:09:19.089Z,28.80
2023-01-20T00:11:46.841Z,24.20
2023-01-20T00:14:14.159Z,26.40
2023-01-20T00:16:41.028Z,28.97
2023-01-20T00:19:09.511Z,29.27
2023-01-20T00:21:36.242Z,27.57
2023-01-20T00:24:03.064Z,26.00
2023-01-20T00:26:29.819Z,25.63
2023-01-20T00:29:00.054Z,29.80
2023-01-20T00:31:30.321Z,31.53
2023-01-20T00:34:00.396Z,27.23
2023-01-20T00:36:31.639Z,29.13
2023-01-20T00:38:59.137Z,26.50
2023-01-20T00:41:25.929Z,25.47
2023-01-20T00:43:53.066Z,24.90
2023-01-20T00:46:19.962Z,26.17
2023-01-20T00:48:46.712Z,26.37
2023-01-20T00:51:13.429Z,29.87
2023-01-20T00:53:40.324Z,28.77
2023-01-20T00:56:08.089Z,25.67
2023-01-20T00:58:35.007Z,26.93
2023-01-20T01:01:02.205Z,28.13
2023-01-20T01:03:29.305Z,26.50
2023-01-20T01:06:11.737Z,27.30
2023-01-20T01:08:38.511Z,27.37
2023-01-20T01:11:06.497Z,31.33
2023-01-20T01:13:35.154Z,28.73
2023-01-20T01:16:01.991Z,29.77
2023-01-20T01:18:28.867Z,25.93
2023-01-20T01:20:55.649Z,26.30
2023-01-20T01:23:22.501Z,26.63
2023-01-20T01:25:49.489Z,31.00
2023-01-20T01:28:16.277Z,24.90
2023-01-20T01:30:43.057Z,31.60
2023-01-20T01:33:09.820Z,25.40
2023-01-20T01:35:36.637Z,26.60
2023-01-20T01:38:03.441Z,27.77
2023-01-20T01:40:30.264Z,25.10
2023-01-20T01:42:57.023Z,26.30
2023-01-20T01:45:30.004Z,25.50
2023-01-20T01:48:10.193Z,27.27
2023-01-20T01:50:47.149Z,25.03
2023-01-20T01:53:15.536Z,25.63
2023-01-20T01:55:56.078Z,27.77
2023-01-20T01:58:32.291Z,28.77
2023-01-20T02:00:59.484Z,27.73
2023-01-20T02:03:36.040Z,27.50
2023-01-20T02:06:04.931Z,25.90
2023-01-20T02:08:31.941Z,27.73
2023-01-20T02:10:58.669Z,28.93
2023-01-20T02:13:25.498Z,26.57
2023-01-20T02:17:00.702Z,29.63
2023-01-20T02:20:01.525Z,28.67
2023-01-20T02:22:41.330Z,28.60
2023-01-20T02:25:29.559Z,26.93
2023-01-20T02:28:33.882Z,30.47
2023-01-20T02:31:44.502Z,29.80
2023-01-20T02:34:27.584Z,27.43
2023-01-20T02:37:03.390Z,33.17
2023-01-20T02:39:58.936Z,28.77
2023-01-20T02:42:43.484Z,25.70
2023-01-20T02:45:45.859Z,32.27
2023-01-20T02:48:24.087Z,32.30
2023-01-20T02:51:07.633Z,34.97
2023-01-20T02:53:48.043Z,32.83
2023-01-20T02:56:17.791Z,33.13
2023-01-20T02:59:06.494Z,33.20
2023-01-20T03:01:42.374Z,27.63
2023-01-20T03:04:15.936Z,28.83
2023-01-20T03:06:53.393Z,29.47
2023-01-20T03:09:30.317Z,30.13
2023-01-20T03:12:04.325Z,30.50
2023-01-20T03:14:31.534Z,30.83
2023-01-20T03:16:58.321Z,32.23
2023-01-20T03:19:25.163Z,29.43
2023-01-20T03:21:52.839Z,28.33
2023-01-20T03:24:22.149Z,28.13
2023-01-20T03:26:48.880Z,24.43
2023-01-20T03:29:16.013Z,29.63
2023-01-20T03:31:53.215Z,31.67
2023-01-20T03:34:24.969Z,23.90
2023-01-20T03:36:54.311Z,26.37
2023-01-20T03:39:22.951Z,29.87
2023-01-20T03:42:16.432Z,31.30
2023-01-20T03:45:15.228Z,28.70
2023-01-20T03:48:11.222Z,25.60
2023-01-20T03:51:00.013Z,25.43
2023-01-20T03:53:59.768Z,28.10
2023-01-20T03:56:43.041Z,23.97
2023-01-20T03:59:14.186Z,27.03
2023-01-20T04:01:45.272Z,25.67
2023-01-20T04:04:18.283Z,21.63
2023-01-20T04:06:47.953Z,26.00
2023-01-20T04:09:23.636Z,21.30
2023-01-20T04:11:51.211Z,21.57
2023-01-20T04:14:18.351Z,22.90
2023-01-20T04:16:57.495Z,23.63
2023-01-20T04:19:25.539Z,25.83
2023-01-20T04:22:22.670Z,21.67
2023-01-20T04:25:15.280Z,23.60
2023-01-20T04:27:42.261Z,23.13
2023-01-20T04:30:10.448Z,21.90
2023-01-20T04:32:37.299Z,24.03
2023-01-20T04:35:04.375Z,24.63
2023-01-20T04:37:31.175Z,20.20
2023-01-20T04:39:57.911Z,21.53
2023-01-20T04:42:24.737Z,18.13
2023-01-20T04:44:51.503Z,17.67
2023-01-20T04:47:18.251Z,18.30
2023-01-20T04:49:45.532Z,20.63
2023-01-20T04:52:12.418Z,22.03
2023-01-20T04:54:39.267Z,21.13
2023-01-20T04:57:06.357Z,17.20
2023-01-20T04:59:33.355Z,19.00
2023-01-20T05:02:00.284Z,19.77
2023-01-20T05:04:27.060Z,26.47
2023-01-20T05:06:53.778Z,23.53
2023-01-20T05:09:20.766Z,25.63
2023-01-20T05:11:47.509Z,20.33
2023-01-20T05:14:14.685Z,17.77
2023-01-20T05:16:41.476Z,16.03
2023-01-20T05:19:08.440Z,19.10
2023-01-20T05:21:35.307Z,19.30
2023-01-20T05:24:02.026Z,17.97
2023-01-20T05:26:28.817Z,19.20
2023-01-20T05:28:55.715Z,16.67
2023-01-20T05:31:22.519Z,19.00
2023-01-20T05:33:49.399Z,20.10
2023-01-20T05:36:16.127Z,18.27
2023-01-20T05:38:42.982Z,21.77
2023-01-20T05:41:10.508Z,17.37
2023-01-20T05:43:37.676Z,19.93
2023-01-20T05:46:06.311Z,19.33
2023-01-20T05:48:33.408Z,19.00
2023-01-20T05:51:00.414Z,20.37
2023-01-20T05:53:27.235Z,22.03
2023-01-20T05:56:01.223Z,23.60
2023-01-20T05:58:29.741Z,22.13
2023-01-20T06:01:09.148Z,19.97
2023-01-20T06:03:36.131Z,24.77
2023-01-20T06:06:14.149Z,18.00
2023-01-20T06:08:41.493Z,18.70
2023-01-20T06:11:08.259Z,19.20
2023-01-20T06:13:35.423Z,23.93
2023-01-20T06:16:02.324Z,22.00
2023-01-20T06:18:30.451Z,21.23
2023-01-20T06:21:00.990Z,24.23
2023-01-20T06:23:29.003Z,24.70
2023-01-20T06:26:05.886Z,25.57
2023-01-20T06:28:33.413Z,28.10
2023-01-20T06:31:13.482Z,26.07
2023-01-20T06:33:40.965Z,25.80
2023-01-20T06:36:10.955Z,28.40
2023-01-20T06:38:37.770Z,25.13
2023-01-20T06:41:07.559Z,23.63
2023-01-20T06:43:35.681Z,23.17
2023-01-20T06:46:05.609Z,24.20
2023-01-20T06:48:33.455Z,25.90
2023-01-20T06:51:06.647Z,24.80
2023-01-20T06:53:33.852Z,28.00
2023-01-20T06:56:01.757Z,26.73
2023-01-20T06:58:33.901Z,23.30
2023-01-20T07:01:24.853Z,27.97
2023-01-20T07:03:52.010Z,27.53
2023-01-20T07:06:24.777Z,23.67
2023-01-20T07:08:51.919Z,25.93
2023-01-20T07:11:18.778Z,28.77
2023-01-20T07:13:45.565Z,28.67
2023-01-20T07:16:15.669Z,29.30
2023-01-20T07:18:46.870Z,26.67
2023-01-20T07:21:13.691Z,27.80
2023-01-20T07:23:40.628Z,27.17
2023-01-20T07:26:14.983Z,26.10
2023-01-20T07:28:41.958Z,42.73
2023-01-20T07:31:16.768Z,29.77
2023-01-20T07:33:44.027Z,30.53
2023-01-20T07:36:13.255Z,27.57
2023-01-20T07:38:40.541Z,28.53
2023-01-20T07:41:11.851Z,24.87
2023-01-20T07:43:38.643Z,25.53
2023-01-20T07:46:06.027Z,25.07
2023-01-20T07:48:33.967Z,23.93
2023-01-20T07:51:10.977Z,24.63
2023-01-20T07:53:47.633Z,23.30
2023-01-20T07:56:21.997Z,21.83
2023-01-20T07:58:50.612Z,20.90
2023-01-20T08:01:30.881Z,24.10
2023-01-20T08:04:02.523Z,25.17
2023-01-20T08:06:30.425Z,22.17
2023-01-20T08:09:01.578Z,24.97
2023-01-20T08:11:28.718Z,21.90
2023-01-20T08:13:55.695Z,22.33
2023-01-20T08:16:22.518Z,24.53
2023-01-20T08:18:49.441Z,19.43
2023-01-20T08:21:20.482Z,20.33
2023-01-20T08:23:47.424Z,22.73
2023-01-20T08:26:14.799Z,20.90
2023-01-20T08:28:41.655Z,19.10
2023-01-20T08:31:15.581Z,18.83
2023-01-20T08:33:44.008Z,23.20
2023-01-20T08:36:21.591Z,20.83
2023-01-20T08:38:49.476Z,23.80
2023-01-20T08:41:28.222Z,18.97
2023-01-20T08:43:58.873Z,17.40
2023-01-20T08:46:25.742Z,21.17
2023-01-20T08:48:54.137Z,17.77
2023-01-20T08:51:26.429Z,19.97
2023-01-20T08:53:53.352Z,20.67
2023-01-20T08:56:21.288Z,17.27
2023-01-20T08:58:48.748Z,20.23
2023-01-20T09:01:23.760Z,18.03
2023-01-20T09:04:04.985Z,22.40
2023-01-20T09:06:53.831Z,19.87
2023-01-20T09:09:22.971Z,17.40
2023-01-20T09:11:52.738Z,18.53
2023-01-20T09:14:25.475Z,23.13
2023-01-20T09:16:52.412Z,17.20
2023-01-20T09:19:19.431Z,15.03
2023-01-20T09:21:46.273Z,15.67
2023-01-20T09:24:13.081Z,17.37
2023-01-20T09:26:39.856Z,17.43
2023-01-20T09:29:11.624Z,16.83
2023-01-20T09:31:45.090Z,15.73
2023-01-20T09:34:21.816Z,17.10
2023-01-20T09:36:53.865Z,16.97
2023-01-20T09:39:40.718Z,17.03
2023-01-20T09:43:12.067Z,17.80
2023-01-20T09:45:56.476Z,13.63
2023-01-20T09:49:34.381Z,18.33
2023-01-20T09:52:47.831Z,16.97
2023-01-20T09:55:26.346Z,17.63
2023-01-20T09:58:55.010Z,18.27
2023-01-20T10:01:40.501Z,18.60
2023-01-20T10:04:19.887Z,20.20
2023-01-20T10:07:16.630Z,19.07
2023-01-20T10:10:12.816Z,18.00
2023-01-20T10:12:54.830Z,17.80
2023-01-20T10:15:36.648Z,20.47
2023-01-20T10:18:25.139Z,17.07
2023-01-20T10:21:02.178Z,16.03
2023-01-20T10:23:39.701Z,19.53
2023-01-20T10:26:25.519Z,21.10
2023-01-20T10:29:03.243Z,18.93
2023-01-20T10:31:44.894Z,18.83
2023-01-20T10:34:22.431Z,18.07
2023-01-20T10:37:04.241Z,16.47
2023-01-20T10:39:46.702Z,17.27
2023-01-20T10:42:18.649Z,17.53
2023-01-20T10:44:49.344Z,18.33
2023-01-20T10:47:43.616Z,19.03
2023-01-20T10:50:29.045Z,17.90
2023-01-20T10:53:18.473Z,18.63
2023-01-20T10:55:54.542Z,18.17
2023-01-20T10:58:35.472Z,22.80
2023-01-20T11:01:10.102Z,18.20
2023-01-20T11:03:42.601Z,15.10
2023-01-20T11:06:22.793Z,18.90
2023-01-20T11:08:49.895Z,19.67
2023-01-20T11:11:22.498Z,21.37
2023-01-20T11:13:53.633Z,21.00
2023-01-20T11:16:31.497Z,17.57
2023-01-20T11:19:07.475Z,18.10
2023-01-20T11:21:36.989Z,21.60
2023-01-20T11:24:40.838Z,19.33
2023-01-20T11:27:20.171Z,19.53
2023-01-20T11:29:56.467Z,17.63
2023-01-20T11:32:31.201Z,19.17
2023-01-20T11:34:59.708Z,18.87
2023-01-20T11:37:43.387Z,17.67
2023-01-20T11:40:23.352Z,19.07
2023-01-20T11:42:52.541Z,18.57
2023-01-20T11:45:37.411Z,18.80
2023-01-20T11:48:19.256Z,18.87
2023-01-20T11:51:01.490Z,19.97
2023-01-20T11:53:33.660Z,18.77
2023-01-20T11:56:17.728Z,20.87
2023-01-20T11:59:01.910Z,18.17
2023-01-20T12:01:50.072Z,17.93
2023-01-20T12:04:44.135Z,15.33
2023-01-20T12:07:29.152Z,16.40
2023-01-20T12:10:14.780Z,15.30
2023-01-20T12:13:04.700Z,18.50
2023-01-20T12:15:37.745Z,18.30
2023-01-20T12:18:34.149Z,17.37
2023-01-20T12:21:17.787Z,21.17
2023-01-20T12:25:08.810Z,19.50
2023-01-20T12:27:53.216Z,18.00
2023-01-20T12:30:38.405Z,19.93
2023-01-20T12:33:32.568Z,22.00
2023-01-20T12:36:42.506Z,22.50
2023-01-20T12:40:21.345Z,22.03
2023-01-20T12:43:24.479Z,24.20
2023-01-20T12:46:03.134Z,23.67
2023-01-20T12:48:43.888Z,21.93
2023-01-20T12:51:28.760Z,21.53
2023-01-20T12:54:48.319Z,17.77
2023-01-20T12:58:00.298Z,23.07
2023-01-20T13:00:50.956Z,17.47
2023-01-20T13:03:58.554Z,17.33
2023-01-20T13:07:08.740Z,16.67
2023-01-20T13:10:09.332Z,17.67
2023-01-20T13:13:20.161Z,19.93
2023-01-20T13:16:02.601Z,19.47
2023-01-20T13:18:42.407Z,16.17
2023-01-20T13:21:21.042Z,17.57
2023-01-20T13:23:51.185Z,17.10
2023-01-20T13:26:19.087Z,15.83
2023-01-20T13:28:54.857Z,17.90
2023-01-20T13:31:41.547Z,19.13
2023-01-20T13:34:32.144Z,15.23
2023-01-20T13:37:07.169Z,15.30
2023-01-20T13:39:48.728Z,18.10
2023-01-20T13:42:37.469Z,15.87
2023-01-20T13:45:14.267Z,18.03
2023-01-20T13:47:54.073Z,18.37
2023-01-20T13:50:28.921Z,19.77
2023-01-20T13:53:20.844Z,22.00
2023-01-20T13:55:48.235Z,27.47
2023-01-20T13:58:47.755Z,22.63
2023-01-20T14:01:15.395Z,20.57
2023-01-20T14:03:42.796Z,19.60
2023-01-20T14:06:28.387Z,17.60
2023-01-20T14:08:55.315Z,20.13
2023-01-20T14:11:26.145Z,17.27
2023-01-20T14:14:07.914Z,15.10
2023-01-20T14:16:34.688Z,17.10
2023-01-20T14:19:18.006Z,19.37
2023-01-20T14:21:45.065Z,17.03
2023-01-20T14:24:30.719Z,17.27
2023-01-20T14:27:22.223Z,17.87
2023-01-20T14:29:54.874Z,17.50
2023-01-20T14:32:33.737Z,14.33
2023-01-20T14:35:04.279Z,14.97
2023-01-20T14:37:39.016Z,14.83
2023-01-20T14:40:11.894Z,16.63
2023-01-20T14:42:40.047Z,13.73
2023-01-20T14:45:20.874Z,15.50
2023-01-20T14:47:48.378Z,15.57
2023-01-20T14:50:18.621Z,11.57
2023-01-20T14:52:46.273Z,13.73
2023-01-20T14:55:29.188Z,15.37
2023-01-20T14:57:56.213Z,18.03
2023-01-20T15:00:33.898Z,15.47
2023-01-20T15:03:25.475Z,16.80
2023-01-20T15:06:22.136Z,15.60
2023-01-20T15:09:05.231Z,18.63
2023-01-20T15:11:33.411Z,19.80
2023-01-20T15:14:05.819Z,19.53
2023-01-20T15:16:49.231Z,22.97
2023-01-20T15:19:20.189Z,21.67
2023-01-20T15:22:15.923Z,22.87
2023-01-20T15:24:47.029Z,26.43
2023-01-20T15:27:31.355Z,26.23
2023-01-20T15:30:21.180Z,24.10
2023-01-20T15:32:49.735Z,24.23
2023-01-20T15:35:20.987Z,22.37
2023-01-20T15:37:47.833Z,17.50
2023-01-20T15:40:25.294Z,24.23
2023-01-20T15:42:53.337Z,23.00
2023-01-20T15:45:20.439Z,26.53
2023-01-20T15:47:47.512Z,25.57
2023-01-20T15:50:24.265Z,23.00
2023-01-20T15:52:51.178Z,21.73
2023-01-20T15:55:19.490Z,25.33
2023-01-20T15:57:51.854Z,24.60
2023-01-20T16:00:23.137Z,26.27
2023-01-20T16:02:50.527Z,25.73
2023-01-20T16:05:17.960Z,26.77
2023-01-20T16:07:47.385Z,25.93
2023-01-20T16:10:17.611Z,25.50
2023-01-20T16:12:45.672Z,26.73
2023-01-20T16:15:16.356Z,23.87
2023-01-20T16:17:43.547Z,24.87
2023-01-20T16:20:25.535Z,21.17
2023-01-20T16:22:52.893Z,23.77
2023-01-20T16:25:20.903Z,22.43
2023-01-20T16:27:47.702Z,22.90
2023-01-20T16:30:21.434Z,23.67
2023-01-20T16:32:48.273Z,22.83
2023-01-20T16:35:17.427Z,18.73
2023-01-20T16:37:47.453Z,22.27
2023-01-20T16:40:18.897Z,23.43
2023-01-20T16:42:46.769Z,22.63
2023-01-20T16:45:23.360Z,25.97
2023-01-20T16:47:50.664Z,26.37
2023-01-20T16:50:18.490Z,22.77
2023-01-20T16:52:45.953Z,21.17
2023-01-20T16:55:13.878Z,25.43
2023-01-20T16:57:42.420Z,24.47
2023-01-20T17:00:10.096Z,23.70
2023-01-20T17:02:39.001Z,24.53
2023-01-20T17:05:08.237Z,31.20
2023-01-20T17:07:35.644Z,26.87
2023-01-20T17:10:02.692Z,26.27
2023-01-20T17:12:29.496Z,29.03
2023-01-20T17:14:56.249Z,27.87
2023-01-20T17:17:23.037Z,28.00
2023-01-20T17:19:49.772Z,26.37
2023-01-20T17:22:17.168Z,25.03
2023-01-20T17:24:43.925Z,23.20
2023-01-20T17:27:10.650Z,26.13
2023-01-20T17:29:38.327Z,25.73
2023-01-20T17:32:05.264Z,21.97
2023-01-20T17:34:32.037Z,25.67
2023-01-20T17:36:59.474Z,24.97
2023-01-20T17:39:26.320Z,23.47
2023-01-20T17:41:53.187Z,22.80
2023-01-20T17:44:20.028Z,21.80
2023-01-20T17:46:49.932Z,22.80
2023-01-20T17:49:16.873Z,26.93
2023-01-20T17:51:44.215Z,24.60
2023-01-20T17:54:11.226Z,27.33
2023-01-20T17:56:38.536Z,29.50
2023-01-20T17:59:05.729Z,35.27
2023-01-20T18:01:33.391Z,28.17
2023-01-20T18:04:01.245Z,29.23
2023-01-20T18:06:28.582Z,27.13
2023-01-20T18:09:01.260Z,28.63
2023-01-20T18:11:35.672Z,30.00
2023-01-20T18:14:04.740Z,29.30
2023-01-20T18:16:36.071Z,33.80
2023-01-20T18:19:04.173Z,27.33
2023-01-20T18:21:35.225Z,28.50
2023-01-20T18:24:07.068Z,29.90
2023-01-20T18:26:36.811Z,29.60
2023-01-20T18:29:08.121Z,30.33
2023-01-20T18:31:35.654Z,32.90
2023-01-20T18:34:06.412Z,31.03
2023-01-20T18:36:38.966Z,29.30
2023-01-20T18:39:18.702Z,28.13
2023-01-20T18:41:46.505Z,34.70
2023-01-20T18:44:14.373Z,32.27
2023-01-20T18:46:41.517Z,31.80
2023-01-20T18:49:09.815Z,29.57
2023-01-20T18:51:37.141Z,29.83
2023-01-20T18:54:09.629Z,38.73
2023-01-20T18:56:36.863Z,33.03
2023-01-20T18:59:06.529Z,31.93
2023-01-20T19:01:37.223Z,28.20
2023-01-20T19:04:06.048Z,27.63
2023-01-20T19:06:37.196Z,30.77
2023-01-20T19:09:06.461Z,30.73
2023-01-20T19:11:36.339Z,31.93
2023-01-20T19:14:03.715Z,28.87
2023-01-20T19:16:37.872Z,33.23
2023-01-20T19:19:07.316Z,36.53
2023-01-20T19:21:36.419Z,34.47
2023-01-20T19:24:06.080Z,36.40
2023-01-20T19:26:37.956Z,32.47
2023-01-20T19:29:17.102Z,28.40
2023-01-20T19:31:44.166Z,32.40
2023-01-20T19:34:11.143Z,35.10
2023-01-20T19:36:37.998Z,30.60
2023-01-20T19:39:05.952Z,32.97
2023-01-20T19:41:34.481Z,31.87
2023-01-20T19:44:04.494Z,28.70
2023-01-20T19:46:34.555Z,27.93
2023-01-20T19:49:02.385Z,28.00
2023-01-20T19:51:31.259Z,25.43
2023-01-20T19:54:01.031Z,30.17
2023-01-20T19:56:31.672Z,26.07
2023-01-20T19:59:03.023Z,28.37
2023-01-20T20:01:33.382Z,28.37
2023-01-20T20:04:09.581Z,27.10
2023-01-20T20:06:45.095Z,27.30
2023-01-20T20:09:20.448Z,23.27
2023-01-20T20:11:48.213Z,22.67
2023-01-20T20:14:19.219Z,26.67
2023-01-20T20:16:47.276Z,25.17
2023-01-20T20:19:19.033Z,20.17
2023-01-20T20:21:46.270Z,26.03
2023-01-20T20:24:16.292Z,25.80
2023-01-20T20:26:46.136Z,20.20
2023-01-20T20:29:15.051Z,26.47
2023-01-20T20:31:41.923Z,26.53
2023-01-20T20:34:14.318Z,29.17
2023-01-20T20:36:41.259Z,25.37
2023-01-20T20:39:08.328Z,28.90
2023-01-20T20:41:36.519Z,28.37
2023-01-20T20:44:04.035Z,29.67
2023-01-20T20:46:31.491Z,30.33
2023-01-20T20:49:00.930Z,36.03
2023-01-20T20:51:32.280Z,48.50
2023-01-20T20:54:02.235Z,46.50
2023-01-20T20:56:31.775Z,45.03
2023-01-20T20:59:03.112Z,45.07
2023-01-20T21:01:33.656Z,40.13
2023-01-20T21:04:01.899Z,41.33
2023-01-20T21:06:29.828Z,41.70
2023-01-20T21:08:58.581Z,34.43
2023-01-20T21:11:26.210Z,26.33
2023-01-20T21:13:53.315Z,21.47
2023-01-20T21:16:22.856Z,24.50
2023-01-20T21:18:56.232Z,27.10
2023-01-20T21:21:24.212Z,19.93
2023-01-20T21:23:54.795Z,19.47
2023-01-20T21:26:24.530Z,17.70
2023-01-20T21:28:51.601Z,20.87
2023-01-20T21:31:23.064Z,18.83
2023-01-20T21:33:58.475Z,17.90
2023-01-20T21:36:26.797Z,32.60
2023-01-20T21:38:53.850Z,23.70
2023-01-20T21:41:21.089Z,25.27
2023-01-20T21:44:07.401Z,30.70
2023-01-20T21:46:40.215Z,26.67
2023-01-20T21:49:27.150Z,26.73
2023-01-20T21:52:13.512Z,24.00
2023-01-20T21:54:41.121Z,21.73
2023-01-20T21:57:08.121Z,22.77
2023-01-20T21:59:34.986Z,17.73
2023-01-20T22:02:01.960Z,16.20
2023-01-20T22:04:28.840Z,16.40
2023-01-20T22:06:55.697Z,16.50
2023-01-20T22:09:22.599Z,15.83
2023-01-20T22:11:50.009Z,15.33
2023-01-20T22:14:17.066Z,18.43
2023-01-20T22:16:44.021Z,17.17
2023-01-20T22:19:13.584Z,15.27
2023-01-20T22:21:40.875Z,15.33
2023-01-20T22:24:08.273Z,14.13
2023-01-20T22:26:35.379Z,24.03
2023-01-20T22:29:02.206Z,25.03
2023-01-20T22:31:30.099Z,30.70
2023-01-20T22:33:59.083Z,23.47
2023-01-20T22:36:26.015Z,13.83
2023-01-20T22:38:53.372Z,15.13
2023-01-20T22:41:20.993Z,12.10
2023-01-20T22:43:49.970Z,18.63
2023-01-20T22:46:20.411Z,18.63
2023-01-20T22:48:47.478Z,16.30
2023-01-20T22:51:18.696Z,15.37
2023-01-20T22:53:45.703Z,21.13
2023-01-20T22:56:17.147Z,18.67
2023-01-20T22:58:45.261Z,24.30
2023-01-20T23:01:21.932Z,20.90
2023-01-20T23:03:52.844Z,26.03
2023-01-20T23:06:19.590Z,24.00
2023-01-20T23:08:46.339Z,20.77
2023-01-20T23:11:16.519Z,24.37
2023-01-20T23:13:43.846Z,21.10
2023-01-20T23:16:15.407Z,22.03
2023-01-20T23:18:42.418Z,23.60
2023-01-20T23:21:09.406Z,25.50
2023-01-20T23:23:36.767Z,24.60
2023-01-20T23:26:09.985Z,26.83
2023-01-20T23:28:36.766Z,27.17
2023-01-20T23:31:08.843Z,26.10
2023-01-20T23:33:35.791Z,32.90
2023-01-20T23:36:17.896Z,34.60
2023-01-20T23:38:45.956Z,18.17
2023-01-20T23:41:14.557Z,22.80
2023-01-20T23:43:42.042Z,18.97
2023-01-20T23:46:09.690Z,19.10
2023-01-20T23:48:37.043Z,16.40
2023-01-20T23:51:05.960Z,18.10
2023-01-20T23:53:36.417Z,17.47
2023-01-20T23:56:13.073Z,20.53
2023-01-20T23:58:40.076Z,22.53
